sensor_id;sensor_type;location;lat;lon;timestamp;P1;durP1;ratioP1;P2;durP2;ratioP2
44270;SDS011;29963;44.594;11.368;2024-02-14T00:01:30;41.33;;;27.02;;
44270;SDS011;29963;44.594;11.368;2024-02-14T00:03:56;33.05;;;24.33;;
44270;SDS011;29963;44.594;11.368;2024-02-14T00:06:22;33.92;;;26.02;;
44270;SDS011;29963;44.594;11.368;2024-02-14T00:08:48;36.67;;;26.55;;
44270;SDS011;29963;44.594;11.368;2024-02-14T00:11:14;34.97;;;27.45;;
44270;SDS011;29963;44.594;11.368;2024-02-14T00:13:40;32.22;;;27.15;;
44270;SDS011;29963;44.594;11.368;2024-02-14T00:16:06;33.55;;;26.83;;
44270;SDS011;29963;44.594;11.368;2024-02-14T00:18:31;38.72;;;29.00;;
44270;SDS011;29963;44.594;11.368;2024-02-14T00:20:57;40.45;;;27.13;;
44270;SDS011;29963;44.594;11.368;2024-02-14T00:23:23;38.35;;;27.23;;
44270;SDS011;29963;44.594;11.368;2024-02-14T00:25:49;40.80;;;28.02;;
44270;SDS011;29963;44.594;11.368;2024-02-14T00:28:15;35.53;;;26.50;;
44270;SDS011;29963;44.594;11.368;2024-02-14T00:30:40;33.78;;;26.40;;
44270;SDS011;29963;44.594;11.368;2024-02-14T00:33:06;32.85;;;25.13;;
44270;SDS011;29963;44.594;11.368;2024-02-14T00:35:31;33.72;;;25.40;;
44270;SDS011;29963;44.594;11.368;2024-02-14T00:37:57;38.75;;;26.42;;
44270;SDS011;29963;44.594;11.368;2024-02-14T00:40:23;33.08;;;25.20;;
44270;SDS011;29963;44.594;11.368;2024-02-14T00:42:48;35.35;;;26.88;;
44270;SDS011;29963;44.594;11.368;2024-02-14T00:45:14;32.05;;;25.27;;
44270;SDS011;29963;44.594;11.368;2024-02-14T00:47:40;33.53;;;24.20;;
44270;SDS011;29963;44.594;11.368;2024-02-14T00:50:06;33.40;;;24.25;;
44270;SDS011;29963;44.594;11.368;2024-02-14T00:52:34;38.45;;;24.38;;
44270;SDS011;29963;44.594;11.368;2024-02-14T00:55:00;34.35;;;24.63;;
44270;SDS011;29963;44.594;11.368;2024-02-14T00:57:28;31.45;;;24.65;;
44270;SDS011;29963;44.594;11.368;2024-02-14T00:59:54;35.65;;;25.80;;
44270;SDS011;29963;44.594;11.368;2024-02-14T01:02:21;29.17;;;24.77;;
44270;SDS011;29963;44.594;11.368;2024-02-14T01:04:47;34.88;;;24.45;;
44270;SDS011;29963;44.594;11.368;2024-02-14T01:07:13;36.67;;;26.15;;
44270;SDS011;29963;44.594;11.368;2024-02-14T01:09:38;35.78;;;25.92;;
44270;SDS011;29963;44.594;11.368;2024-02-14T01:12:04;32.58;;;26.10;;
44270;SDS011;29963;44.594;11.368;2024-02-14T01:14:32;31.30;;;24.95;;
44270;SDS011;29963;44.594;11.368;2024-02-14T01:16:58;32.15;;;24.80;;
44270;SDS011;29963;44.594;11.368;2024-02-14T01:19:23;34.03;;;26.60;;
44270;SDS011;29963;44.594;11.368;2024-02-14T01:21:53;34.58;;;23.45;;
44270;SDS011;29963;44.594;11.368;2024-02-14T01:24:19;32.75;;;25.02;;
44270;SDS011;29963;44.594;11.368;2024-02-14T01:26:44;29.75;;;24.35;;
44270;SDS011;29963;44.594;11.368;2024-02-14T01:29:10;31.30;;;23.92;;
44270;SDS011;29963;44.594;11.368;2024-02-14T01:31:36;30.38;;;24.42;;
44270;SDS011;29963;44.594;11.368;2024-02-14T01:34:02;35.65;;;25.88;;
44270;SDS011;29963;44.594;11.368;2024-02-14T01:36:30;33.25;;;25.70;;
44270;SDS011;29963;44.594;11.368;2024-02-14T01:38:56;34.38;;;24.70;;
44270;SDS011;29963;44.594;11.368;2024-02-14T01:41:22;34.53;;;24.85;;
44270;SDS011;29963;44.594;11.368;2024-02-14T01:43:47;35.13;;;24.77;;
44270;SDS011;29963;44.594;11.368;2024-02-14T01:46:14;30.50;;;24.05;;
44270;SDS011;29963;44.594;11.368;2024-02-14T01:48:40;31.15;;;24.67;;
44270;SDS011;29963;44.594;11.368;2024-02-14T01:51:08;34.15;;;25.85;;
44270;SDS011;29963;44.594;11.368;2024-02-14T01:53:36;31.35;;;23.15;;
44270;SDS011;29963;44.594;11.368;2024-02-14T01:56:04;32.42;;;24.33;;
44270;SDS011;29963;44.594;11.368;2024-02-14T01:58:31;30.65;;;23.17;;
44270;SDS011;29963;44.594;11.368;2024-02-14T02:00:58;27.33;;;22.13;;
44270;SDS011;29963;44.594;11.368;2024-02-14T02:03:25;30.45;;;22.88;;
44270;SDS011;29963;44.594;11.368;2024-02-14T02:05:52;28.95;;;22.95;;
44270;SDS011;29963;44.594;11.368;2024-02-14T02:08:19;28.80;;;21.85;;
44270;SDS011;29963;44.594;11.368;2024-02-14T02:10:46;27.38;;;22.70;;
44270;SDS011;29963;44.594;11.368;2024-02-14T02:13:11;24.05;;;20.80;;
44270;SDS011;29963;44.594;11.368;2024-02-14T02:15:37;30.50;;;21.92;;
44270;SDS011;29963;44.594;11.368;2024-02-14T02:18:03;30.40;;;23.48;;
44270;SDS011;29963;44.594;11.368;2024-02-14T02:20:31;29.77;;;22.50;;
44270;SDS011;29963;44.594;11.368;2024-02-14T02:22:57;27.50;;;21.70;;
44270;SDS011;29963;44.594;11.368;2024-02-14T02:25:24;28.55;;;21.60;;
44270;SDS011;29963;44.594;11.368;2024-02-14T02:27:51;30.02;;;23.00;;
44270;SDS011;29963;44.594;11.368;2024-02-14T02:30:21;26.23;;;21.25;;
44270;SDS011;29963;44.594;11.368;2024-02-14T02:32:47;26.92;;;22.42;;
44270;SDS011;29963;44.594;11.368;2024-02-14T02:35:13;29.65;;;22.55;;
44270;SDS011;29963;44.594;11.368;2024-02-14T02:37:39;28.67;;;21.63;;
44270;SDS011;29963;44.594;11.368;2024-02-14T02:40:04;31.98;;;23.10;;
44270;SDS011;29963;44.594;11.368;2024-02-14T02:42:30;28.45;;;23.17;;
44270;SDS011;29963;44.594;11.368;2024-02-14T02:44:56;26.60;;;20.52;;
44270;SDS011;29963;44.594;11.368;2024-02-14T02:47:21;27.30;;;21.63;;
44270;SDS011;29963;44.594;11.368;2024-02-14T02:49:47;30.95;;;23.23;;
44270;SDS011;29963;44.594;11.368;2024-02-14T02:52:13;29.08;;;22.42;;
44270;SDS011;29963;44.594;11.368;2024-02-14T02:54:39;31.15;;;23.75;;
44270;SDS011;29963;44.594;11.368;2024-02-14T02:57:06;28.95;;;21.98;;
44270;SDS011;29963;44.594;11.368;2024-02-14T02:59:33;27.20;;;22.00;;
44270;SDS011;29963;44.594;11.368;2024-02-14T03:02:00;29.00;;;23.70;;
44270;SDS011;29963;44.594;11.368;2024-02-14T03:04:26;30.42;;;23.83;;
44270;SDS011;29963;44.594;11.368;2024-02-14T03:06:51;29.58;;;24.77;;
44270;SDS011;29963;44.594;11.368;2024-02-14T03:09:17;30.30;;;24.15;;
44270;SDS011;29963;44.594;11.368;2024-02-14T03:11:46;28.02;;;22.30;;
44270;SDS011;29963;44.594;11.368;2024-02-14T03:14:15;26.20;;;20.73;;
44270;SDS011;29963;44.594;11.368;2024-02-14T03:16:40;27.67;;;22.02;;
44270;SDS011;29963;44.594;11.368;2024-02-14T03:19:06;24.85;;;20.40;;
44270;SDS011;29963;44.594;11.368;2024-02-14T03:21:32;29.30;;;21.15;;
44270;SDS011;29963;44.594;11.368;2024-02-14T03:23:58;28.23;;;21.13;;
44270;SDS011;29963;44.594;11.368;2024-02-14T03:26:23;23.98;;;20.15;;
44270;SDS011;29963;44.594;11.368;2024-02-14T03:28:49;24.00;;;20.75;;
44270;SDS011;29963;44.594;11.368;2024-02-14T03:31:14;28.73;;;20.42;;
44270;SDS011;29963;44.594;11.368;2024-02-14T03:33:41;25.13;;;19.60;;
44270;SDS011;29963;44.594;11.368;2024-02-14T03:36:07;22.92;;;18.70;;
44270;SDS011;29963;44.594;11.368;2024-02-14T03:38:34;25.35;;;19.23;;
44270;SDS011;29963;44.594;11.368;2024-02-14T03:41:00;24.50;;;18.45;;
44270;SDS011;29963;44.594;11.368;2024-02-14T03:43:25;26.58;;;20.13;;
44270;SDS011;29963;44.594;11.368;2024-02-14T03:45:51;25.10;;;19.02;;
44270;SDS011;29963;44.594;11.368;2024-02-14T03:48:19;25.10;;;19.08;;
44270;SDS011;29963;44.594;11.368;2024-02-14T03:50:45;25.90;;;19.23;;
44270;SDS011;29963;44.594;11.368;2024-02-14T03:53:11;24.00;;;18.10;;
44270;SDS011;29963;44.594;11.368;2024-02-14T03:55:37;23.85;;;18.80;;
44270;SDS011;29963;44.594;11.368;2024-02-14T03:58:03;21.13;;;17.05;;
44270;SDS011;29963;44.594;11.368;2024-02-14T04:00:30;23.63;;;18.52;;
44270;SDS011;29963;44.594;11.368;2024-02-14T04:02:56;22.98;;;18.52;;
44270;SDS011;29963;44.594;11.368;2024-02-14T04:05:25;22.50;;;17.40;;
44270;SDS011;29963;44.594;11.368;2024-02-14T04:07:53;20.27;;;17.38;;
44270;SDS011;29963;44.594;11.368;2024-02-14T04:10:19;20.42;;;17.63;;
44270;SDS011;29963;44.594;11.368;2024-02-14T04:12:46;23.55;;;17.52;;
44270;SDS011;29963;44.594;11.368;2024-02-14T04:15:15;23.50;;;19.23;;
44270;SDS011;29963;44.594;11.368;2024-02-14T04:17:40;23.48;;;18.88;;
44270;SDS011;29963;44.594;11.368;2024-02-14T04:20:06;26.10;;;19.02;;
44270;SDS011;29963;44.594;11.368;2024-02-14T04:22:32;21.20;;;17.55;;
44270;SDS011;29963;44.594;11.368;2024-02-14T04:24:58;21.27;;;18.55;;
44270;SDS011;29963;44.594;11.368;2024-02-14T04:27:24;26.17;;;17.35;;
44270;SDS011;29963;44.594;11.368;2024-02-14T04:29:50;21.67;;;18.60;;
44270;SDS011;29963;44.594;11.368;2024-02-14T04:32:15;21.85;;;17.48;;
44270;SDS011;29963;44.594;11.368;2024-02-14T04:34:42;21.45;;;18.00;;
44270;SDS011;29963;44.594;11.368;2024-02-14T04:37:08;21.60;;;17.25;;
44270;SDS011;29963;44.594;11.368;2024-02-14T04:39:37;23.20;;;16.90;;
44270;SDS011;29963;44.594;11.368;2024-02-14T04:42:03;21.95;;;17.55;;
44270;SDS011;29963;44.594;11.368;2024-02-14T04:44:30;20.65;;;16.63;;
44270;SDS011;29963;44.594;11.368;2024-02-14T04:46:56;22.90;;;17.77;;
44270;SDS011;29963;44.594;11.368;2024-02-14T04:49:23;21.02;;;17.13;;
44270;SDS011;29963;44.594;11.368;2024-02-14T04:51:50;19.08;;;16.55;;
44270;SDS011;29963;44.594;11.368;2024-02-14T04:54:16;24.48;;;19.95;;
44270;SDS011;29963;44.594;11.368;2024-02-14T04:56:42;18.65;;;16.45;;
44270;SDS011;29963;44.594;11.368;2024-02-14T04:59:07;20.85;;;17.42;;
44270;SDS011;29963;44.594;11.368;2024-02-14T05:01:33;20.38;;;17.25;;
44270;SDS011;29963;44.594;11.368;2024-02-14T05:04:00;22.98;;;18.00;;
44270;SDS011;29963;44.594;11.368;2024-02-14T05:06:25;22.27;;;17.42;;
44270;SDS011;29963;44.594;11.368;2024-02-14T05:08:51;19.33;;;15.98;;
44270;SDS011;29963;44.594;11.368;2024-02-14T05:11:17;21.52;;;18.27;;
44270;SDS011;29963;44.594;11.368;2024-02-14T05:13:43;24.98;;;17.33;;
44270;SDS011;29963;44.594;11.368;2024-02-14T05:16:09;22.13;;;17.40;;
44270;SDS011;29963;44.594;11.368;2024-02-14T05:18:38;23.38;;;17.63;;
44270;SDS011;29963;44.594;11.368;2024-02-14T05:21:05;23.83;;;16.77;;
44270;SDS011;29963;44.594;11.368;2024-02-14T05:23:31;20.63;;;16.95;;
44270;SDS011;29963;44.594;11.368;2024-02-14T05:25:57;18.85;;;15.70;;
44270;SDS011;29963;44.594;11.368;2024-02-14T05:28:23;21.75;;;17.15;;
44270;SDS011;29963;44.594;11.368;2024-02-14T05:30:48;18.27;;;16.33;;
44270;SDS011;29963;44.594;11.368;2024-02-14T05:33:14;20.15;;;16.00;;
44270;SDS011;29963;44.594;11.368;2024-02-14T05:35:39;20.10;;;16.92;;
44270;SDS011;29963;44.594;11.368;2024-02-14T05:38:05;21.95;;;17.60;;
44270;SDS011;29963;44.594;11.368;2024-02-14T05:40:32;19.95;;;15.75;;
44270;SDS011;29963;44.594;11.368;2024-02-14T05:42:58;19.98;;;17.08;;
44270;SDS011;29963;44.594;11.368;2024-02-14T05:45:24;18.55;;;16.10;;
44270;SDS011;29963;44.594;11.368;2024-02-14T05:47:49;21.30;;;17.40;;
44270;SDS011;29963;44.594;11.368;2024-02-14T05:50:15;21.30;;;17.50;;
44270;SDS011;29963;44.594;11.368;2024-02-14T05:52:41;21.80;;;17.70;;
44270;SDS011;29963;44.594;11.368;2024-02-14T05:55:07;22.23;;;17.15;;
44270;SDS011;29963;44.594;11.368;2024-02-14T05:57:34;22.83;;;18.27;;
44270;SDS011;29963;44.594;11.368;2024-02-14T05:59:59;24.08;;;17.65;;
44270;SDS011;29963;44.594;11.368;2024-02-14T06:02:25;24.83;;;18.50;;
44270;SDS011;29963;44.594;11.368;2024-02-14T06:04:50;25.77;;;18.63;;
44270;SDS011;29963;44.594;11.368;2024-02-14T06:07:16;20.15;;;16.75;;
44270;SDS011;29963;44.594;11.368;2024-02-14T06:09:42;21.55;;;17.05;;
44270;SDS011;29963;44.594;11.368;2024-02-14T06:12:07;20.60;;;16.42;;
44270;SDS011;29963;44.594;11.368;2024-02-14T06:14:33;22.85;;;16.67;;
44270;SDS011;29963;44.594;11.368;2024-02-14T06:17:00;21.90;;;16.77;;
44270;SDS011;29963;44.594;11.368;2024-02-14T06:19:26;22.13;;;18.05;;
44270;SDS011;29963;44.594;11.368;2024-02-14T06:21:52;21.40;;;16.55;;
44270;SDS011;29963;44.594;11.368;2024-02-14T06:24:18;30.15;;;18.85;;
44270;SDS011;29963;44.594;11.368;2024-02-14T06:26:44;20.88;;;17.20;;
44270;SDS011;29963;44.594;11.368;2024-02-14T06:29:10;26.45;;;18.63;;
44270;SDS011;29963;44.594;11.368;2024-02-14T06:31:36;21.83;;;17.60;;
44270;SDS011;29963;44.594;11.368;2024-02-14T06:34:01;24.02;;;19.23;;
44270;SDS011;29963;44.594;11.368;2024-02-14T06:36:27;21.30;;;18.98;;
44270;SDS011;29963;44.594;11.368;2024-02-14T06:38:53;24.23;;;19.23;;
44270;SDS011;29963;44.594;11.368;2024-02-14T06:41:18;24.98;;;21.13;;
44270;SDS011;29963;44.594;11.368;2024-02-14T06:43:45;24.40;;;19.20;;
44270;SDS011;29963;44.594;11.368;2024-02-14T06:46:11;23.58;;;17.50;;
44270;SDS011;29963;44.594;11.368;2024-02-14T06:48:36;24.50;;;18.63;;
44270;SDS011;29963;44.594;11.368;2024-02-14T06:51:02;22.20;;;16.73;;
44270;SDS011;29963;44.594;11.368;2024-02-14T06:53:31;19.77;;;16.65;;
44270;SDS011;29963;44.594;11.368;2024-02-14T06:55:57;21.05;;;16.77;;
44270;SDS011;29963;44.594;11.368;2024-02-14T06:58:22;23.70;;;18.23;;
44270;SDS011;29963;44.594;11.368;2024-02-14T07:00:48;20.23;;;16.88;;
44270;SDS011;29963;44.594;11.368;2024-02-14T07:03:14;21.00;;;17.23;;
44270;SDS011;29963;44.594;11.368;2024-02-14T07:05:40;24.70;;;18.10;;
44270;SDS011;29963;44.594;11.368;2024-02-14T07:08:06;24.55;;;20.10;;
44270;SDS011;29963;44.594;11.368;2024-02-14T07:10:32;23.25;;;17.83;;
44270;SDS011;29963;44.594;11.368;2024-02-14T07:12:58;21.30;;;18.27;;
44270;SDS011;29963;44.594;11.368;2024-02-14T07:15:24;29.05;;;18.17;;
44270;SDS011;29963;44.594;11.368;2024-02-14T07:17:53;28.90;;;18.63;;
44270;SDS011;29963;44.594;11.368;2024-02-14T07:20:23;22.20;;;18.75;;
44270;SDS011;29963;44.594;11.368;2024-02-14T07:22:52;25.77;;;17.77;;
44270;SDS011;29963;44.594;11.368;2024-02-14T07:25:21;24.63;;;18.08;;
44270;SDS011;29963;44.594;11.368;2024-02-14T07:27:46;19.70;;;16.77;;
44270;SDS011;29963;44.594;11.368;2024-02-14T07:30:14;21.27;;;17.65;;
44270;SDS011;29963;44.594;11.368;2024-02-14T07:32:40;22.65;;;16.08;;
44270;SDS011;29963;44.594;11.368;2024-02-14T07:35:06;19.90;;;16.50;;
44270;SDS011;29963;44.594;11.368;2024-02-14T07:37:32;19.13;;;16.30;;
44270;SDS011;29963;44.594;11.368;2024-02-14T07:39:58;20.60;;;16.05;;
44270;SDS011;29963;44.594;11.368;2024-02-14T07:42:23;19.05;;;16.80;;
44270;SDS011;29963;44.594;11.368;2024-02-14T07:44:49;18.25;;;15.60;;
44270;SDS011;29963;44.594;11.368;2024-02-14T07:47:14;15.30;;;12.63;;
44270;SDS011;29963;44.594;11.368;2024-02-14T07:49:40;17.20;;;13.90;;
44270;SDS011;29963;44.594;11.368;2024-02-14T07:52:06;18.63;;;15.75;;
44270;SDS011;29963;44.594;11.368;2024-02-14T07:54:31;20.15;;;14.98;;
44270;SDS011;29963;44.594;11.368;2024-02-14T07:56:57;19.13;;;14.43;;
44270;SDS011;29963;44.594;11.368;2024-02-14T07:59:23;17.67;;;14.18;;
44270;SDS011;29963;44.594;11.368;2024-02-14T08:01:49;18.05;;;14.43;;
44270;SDS011;29963;44.594;11.368;2024-02-14T08:04:14;23.33;;;14.63;;
44270;SDS011;29963;44.594;11.368;2024-02-14T08:06:40;18.77;;;15.02;;
44270;SDS011;29963;44.594;11.368;2024-02-14T08:09:06;16.58;;;14.85;;
44270;SDS011;29963;44.594;11.368;2024-02-14T08:11:34;18.23;;;14.82;;
44270;SDS011;29963;44.594;11.368;2024-02-14T08:14:01;22.25;;;16.90;;
44270;SDS011;29963;44.594;11.368;2024-02-14T08:16:27;22.98;;;14.98;;
44270;SDS011;29963;44.594;11.368;2024-02-14T08:18:52;20.75;;;14.88;;
44270;SDS011;29963;44.594;11.368;2024-02-14T08:21:24;16.50;;;14.70;;
44270;SDS011;29963;44.594;11.368;2024-02-14T08:23:53;22.05;;;17.10;;
44270;SDS011;29963;44.594;11.368;2024-02-14T08:26:19;19.52;;;15.77;;
44270;SDS011;29963;44.594;11.368;2024-02-14T08:28:49;22.02;;;17.13;;
44270;SDS011;29963;44.594;11.368;2024-02-14T08:31:15;21.65;;;17.02;;
44270;SDS011;29963;44.594;11.368;2024-02-14T08:33:40;21.02;;;17.88;;
44270;SDS011;29963;44.594;11.368;2024-02-14T08:36:06;21.05;;;17.33;;
44270;SDS011;29963;44.594;11.368;2024-02-14T08:38:33;23.20;;;19.40;;
44270;SDS011;29963;44.594;11.368;2024-02-14T08:40:59;26.50;;;19.55;;
44270;SDS011;29963;44.594;11.368;2024-02-14T08:43:29;23.38;;;20.27;;
44270;SDS011;29963;44.594;11.368;2024-02-14T08:45:55;24.13;;;19.35;;
44270;SDS011;29963;44.594;11.368;2024-02-14T08:48:21;26.60;;;20.27;;
44270;SDS011;29963;44.594;11.368;2024-02-14T08:50:47;26.58;;;20.73;;
44270;SDS011;29963;44.594;11.368;2024-02-14T08:53:13;27.48;;;21.65;;
44270;SDS011;29963;44.594;11.368;2024-02-14T08:55:42;29.92;;;21.27;;
44270;SDS011;29963;44.594;11.368;2024-02-14T08:58:08;28.63;;;22.27;;
44270;SDS011;29963;44.594;11.368;2024-02-14T09:00:36;26.20;;;21.77;;
44270;SDS011;29963;44.594;11.368;2024-02-14T09:03:03;27.73;;;21.73;;
44270;SDS011;29963;44.594;11.368;2024-02-14T09:05:28;33.78;;;22.85;;
44270;SDS011;29963;44.594;11.368;2024-02-14T09:07:54;33.45;;;21.30;;
44270;SDS011;29963;44.594;11.368;2024-02-14T09:10:20;27.80;;;20.70;;
44270;SDS011;29963;44.594;11.368;2024-02-14T09:12:46;28.05;;;22.05;;
44270;SDS011;29963;44.594;11.368;2024-02-14T09:15:12;26.33;;;21.67;;
44270;SDS011;29963;44.594;11.368;2024-02-14T09:17:41;28.25;;;21.17;;
44270;SDS011;29963;44.594;11.368;2024-02-14T09:20:08;29.45;;;22.15;;
44270;SDS011;29963;44.594;11.368;2024-02-14T09:22:35;31.63;;;22.10;;
44270;SDS011;29963;44.594;11.368;2024-02-14T09:25:06;30.00;;;22.25;;
44270;SDS011;29963;44.594;11.368;2024-02-14T09:27:33;29.40;;;23.80;;
44270;SDS011;29963;44.594;11.368;2024-02-14T09:30:00;28.25;;;20.95;;
44270;SDS011;29963;44.594;11.368;2024-02-14T09:32:28;29.63;;;22.25;;
44270;SDS011;29963;44.594;11.368;2024-02-14T09:34:55;33.45;;;24.48;;
44270;SDS011;29963;44.594;11.368;2024-02-14T09:37:20;30.77;;;23.35;;
44270;SDS011;29963;44.594;11.368;2024-02-14T09:39:46;29.42;;;23.67;;
44270;SDS011;29963;44.594;11.368;2024-02-14T09:42:13;35.17;;;23.73;;
44270;SDS011;29963;44.594;11.368;2024-02-14T09:44:40;29.02;;;22.08;;
44270;SDS011;29963;44.594;11.368;2024-02-14T09:47:08;29.60;;;21.13;;
44270;SDS011;29963;44.594;11.368;2024-02-14T09:49:34;32.83;;;24.90;;
44270;SDS011;29963;44.594;11.368;2024-02-14T09:52:02;27.88;;;23.08;;
44270;SDS011;29963;44.594;11.368;2024-02-14T09:54:28;27.73;;;22.92;;
44270;SDS011;29963;44.594;11.368;2024-02-14T09:56:56;29.00;;;22.52;;
44270;SDS011;29963;44.594;11.368;2024-02-14T09:59:23;29.42;;;21.95;;
44270;SDS011;29963;44.594;11.368;2024-02-14T10:01:49;25.60;;;20.98;;
44270;SDS011;29963;44.594;11.368;2024-02-14T10:04:16;28.90;;;23.67;;
44270;SDS011;29963;44.594;11.368;2024-02-14T10:06:44;33.20;;;25.33;;
44270;SDS011;29963;44.594;11.368;2024-02-14T10:09:10;34.70;;;25.65;;
44270;SDS011;29963;44.594;11.368;2024-02-14T10:11:35;31.42;;;25.92;;
44270;SDS011;29963;44.594;11.368;2024-02-14T10:14:02;29.88;;;24.65;;
44270;SDS011;29963;44.594;11.368;2024-02-14T10:16:32;32.75;;;28.17;;
44270;SDS011;29963;44.594;11.368;2024-02-14T10:19:00;30.65;;;24.67;;
44270;SDS011;29963;44.594;11.368;2024-02-14T10:21:26;37.10;;;28.10;;
44270;SDS011;29963;44.594;11.368;2024-02-14T10:23:53;28.42;;;24.05;;
44270;SDS011;29963;44.594;11.368;2024-02-14T10:26:21;33.30;;;26.55;;
44270;SDS011;29963;44.594;11.368;2024-02-14T10:28:47;34.60;;;25.38;;
44270;SDS011;29963;44.594;11.368;2024-02-14T10:31:14;35.60;;;28.05;;
44270;SDS011;29963;44.594;11.368;2024-02-14T10:33:40;31.98;;;24.83;;
44270;SDS011;29963;44.594;11.368;2024-02-14T10:36:07;36.15;;;28.45;;
44270;SDS011;29963;44.594;11.368;2024-02-14T10:38:34;35.58;;;27.75;;
44270;SDS011;29963;44.594;11.368;2024-02-14T10:41:00;35.83;;;28.85;;
44270;SDS011;29963;44.594;11.368;2024-02-14T10:43:27;33.17;;;26.63;;
44270;SDS011;29963;44.594;11.368;2024-02-14T10:45:53;34.80;;;28.73;;
44270;SDS011;29963;44.594;11.368;2024-02-14T10:48:19;33.63;;;27.40;;
44270;SDS011;29963;44.594;11.368;2024-02-14T10:50:51;35.88;;;26.00;;
44270;SDS011;29963;44.594;11.368;2024-02-14T10:53:18;33.05;;;26.10;;
44270;SDS011;29963;44.594;11.368;2024-02-14T10:55:48;30.63;;;25.60;;
44270;SDS011;29963;44.594;11.368;2024-02-14T10:58:17;33.90;;;25.23;;
44270;SDS011;29963;44.594;11.368;2024-02-14T11:00:43;31.10;;;23.42;;
44270;SDS011;29963;44.594;11.368;2024-02-14T11:03:10;31.38;;;22.75;;
44270;SDS011;29963;44.594;11.368;2024-02-14T11:05:44;28.48;;;23.20;;
44270;SDS011;29963;44.594;11.368;2024-02-14T11:08:13;26.40;;;20.23;;
44270;SDS011;29963;44.594;11.368;2024-02-14T11:10:40;28.42;;;22.95;;
44270;SDS011;29963;44.594;11.368;2024-02-14T11:13:09;28.35;;;23.05;;
44270;SDS011;29963;44.594;11.368;2024-02-14T11:15:39;24.17;;;19.52;;
44270;SDS011;29963;44.594;11.368;2024-02-14T11:18:09;25.73;;;21.42;;
44270;SDS011;29963;44.594;11.368;2024-02-14T11:20:35;27.05;;;20.45;;
44270;SDS011;29963;44.594;11.368;2024-02-14T11:25:34;28.73;;;20.58;;
44270;SDS011;29963;44.594;11.368;2024-02-14T11:28:01;26.92;;;20.05;;
44270;SDS011;29963;44.594;11.368;2024-02-14T11:30:41;24.63;;;18.65;;
44270;SDS011;29963;44.594;11.368;2024-02-14T11:35:47;30.38;;;21.63;;
44270;SDS011;29963;44.594;11.368;2024-02-14T11:38:16;29.95;;;23.25;;
44270;SDS011;29963;44.594;11.368;2024-02-14T11:40:42;27.70;;;20.60;;
44270;SDS011;29963;44.594;11.368;2024-02-14T11:45:38;31.25;;;22.95;;
44270;SDS011;29963;44.594;11.368;2024-02-14T11:48:07;31.33;;;22.40;;
44270;SDS011;29963;44.594;11.368;2024-02-14T11:50:34;30.85;;;23.95;;
44270;SDS011;29963;44.594;11.368;2024-02-14T11:53:00;33.15;;;25.63;;
44270;SDS011;29963;44.594;11.368;2024-02-14T11:55:30;37.63;;;26.52;;
44270;SDS011;29963;44.594;11.368;2024-02-14T11:57:57;32.30;;;26.23;;
44270;SDS011;29963;44.594;11.368;2024-02-14T12:00:23;36.35;;;27.83;;
44270;SDS011;29963;44.594;11.368;2024-02-14T12:02:49;33.20;;;25.50;;
44270;SDS011;29963;44.594;11.368;2024-02-14T12:05:19;33.95;;;26.13;;
44270;SDS011;29963;44.594;11.368;2024-02-14T12:07:45;36.92;;;24.35;;
44270;SDS011;29963;44.594;11.368;2024-02-14T12:10:11;31.80;;;24.80;;
44270;SDS011;29963;44.594;11.368;2024-02-14T12:12:37;30.58;;;23.33;;
44270;SDS011;29963;44.594;11.368;2024-02-14T12:15:03;33.15;;;25.23;;
44270;SDS011;29963;44.594;11.368;2024-02-14T12:17:31;33.63;;;25.55;;
44270;SDS011;29963;44.594;11.368;2024-02-14T12:20:07;33.17;;;24.65;;
44270;SDS011;29963;44.594;11.368;2024-02-14T12:22:38;28.17;;;21.52;;
44270;SDS011;29963;44.594;11.368;2024-02-14T12:25:05;31.95;;;23.60;;
44270;SDS011;29963;44.594;11.368;2024-02-14T12:27:33;31.27;;;22.90;;
44270;SDS011;29963;44.594;11.368;2024-02-14T12:30:06;36.70;;;27.45;;
44270;SDS011;29963;44.594;11.368;2024-02-14T12:32:32;37.22;;;25.73;;
44270;SDS011;29963;44.594;11.368;2024-02-14T12:35:00;32.70;;;25.20;;
44270;SDS011;29963;44.594;11.368;2024-02-14T12:37:26;26.90;;;23.45;;
44270;SDS011;29963;44.594;11.368;2024-02-14T12:39:51;30.27;;;23.25;;
44270;SDS011;29963;44.594;11.368;2024-02-14T12:42:18;28.40;;;23.23;;
44270;SDS011;29963;44.594;11.368;2024-02-14T12:44:50;31.50;;;25.67;;
44270;SDS011;29963;44.594;11.368;2024-02-14T12:47:16;35.20;;;24.58;;
44270;SDS011;29963;44.594;11.368;2024-02-14T12:49:43;36.83;;;27.40;;
44270;SDS011;29963;44.594;11.368;2024-02-14T12:52:08;36.70;;;26.45;;
44270;SDS011;29963;44.594;11.368;2024-02-14T12:54:34;33.70;;;25.65;;
44270;SDS011;29963;44.594;11.368;2024-02-14T12:56:59;35.15;;;25.58;;
44270;SDS011;29963;44.594;11.368;2024-02-14T12:59:26;34.50;;;25.13;;
44270;SDS011;29963;44.594;11.368;2024-02-14T13:01:51;29.10;;;25.33;;
44270;SDS011;29963;44.594;11.368;2024-02-14T13:04:17;31.55;;;25.50;;
44270;SDS011;29963;44.594;11.368;2024-02-14T13:06:42;30.70;;;23.80;;
44270;SDS011;29963;44.594;11.368;2024-02-14T13:09:08;32.50;;;24.30;;
44270;SDS011;29963;44.594;11.368;2024-02-14T13:11:35;30.60;;;23.88;;
44270;SDS011;29963;44.594;11.368;2024-02-14T13:14:00;25.83;;;23.08;;
44270;SDS011;29963;44.594;11.368;2024-02-14T13:16:26;28.70;;;23.50;;
44270;SDS011;29963;44.594;11.368;2024-02-14T13:18:52;33.60;;;25.83;;
44270;SDS011;29963;44.594;11.368;2024-02-14T13:21:21;28.95;;;23.92;;
44270;SDS011;29963;44.594;11.368;2024-02-14T13:23:46;27.05;;;22.38;;
44270;SDS011;29963;44.594;11.368;2024-02-14T13:26:12;25.08;;;21.33;;
44270;SDS011;29963;44.594;11.368;2024-02-14T13:28:39;29.00;;;22.73;;
44270;SDS011;29963;44.594;11.368;2024-02-14T13:31:05;32.45;;;23.23;;
44270;SDS011;29963;44.594;11.368;2024-02-14T13:33:31;29.58;;;22.83;;
44270;SDS011;29963;44.594;11.368;2024-02-14T13:35:57;27.58;;;23.02;;
44270;SDS011;29963;44.594;11.368;2024-02-14T13:38:22;25.45;;;18.67;;
44270;SDS011;29963;44.594;11.368;2024-02-14T13:40:48;24.45;;;20.23;;
44270;SDS011;29963;44.594;11.368;2024-02-14T13:43:14;25.13;;;19.80;;
44270;SDS011;29963;44.594;11.368;2024-02-14T13:45:43;28.02;;;18.45;;
44270;SDS011;29963;44.594;11.368;2024-02-14T13:48:09;22.88;;;18.25;;
44270;SDS011;29963;44.594;11.368;2024-02-14T13:50:36;23.30;;;17.35;;
44270;SDS011;29963;44.594;11.368;2024-02-14T13:53:02;21.05;;;17.85;;
44270;SDS011;29963;44.594;11.368;2024-02-14T13:55:28;22.92;;;17.15;;
44270;SDS011;29963;44.594;11.368;2024-02-14T13:57:54;20.17;;;15.35;;
44270;SDS011;29963;44.594;11.368;2024-02-14T14:00:20;22.17;;;16.00;;
44270;SDS011;29963;44.594;11.368;2024-02-14T14:02:45;18.48;;;14.13;;
44270;SDS011;29963;44.594;11.368;2024-02-14T14:05:11;16.27;;;12.85;;
44270;SDS011;29963;44.594;11.368;2024-02-14T14:07:40;17.73;;;13.35;;
44270;SDS011;29963;44.594;11.368;2024-02-14T14:10:07;15.93;;;14.20;;
44270;SDS011;29963;44.594;11.368;2024-02-14T14:12:37;14.15;;;12.68;;